KCQX

Chatham Municipal Airport

Chatham, Massachusetts, USA
METAR KCQX 221352Z AUTO VRB05KT 10SM CLR 07/M04 A3022 RMK AO2 SLP235 T00671044
Observed Flight Rules
Oct-22 @ 13:52 UTC (52 minutes ago) Visual Flight Rules
Wind Visibility Clouds
Variable at 5 knots 10 miles
  • Clear skies
Temperatures Readings
Current 7°C / 45°F
Dewpoint -4°C / 25°F
Humidity 46%
Altimeter 30.22" Hg
Pressure 1023.5 hPa
Elevation 19
METAR KCQX 221352Z AUTO VRB05KT 10SM CLR 07/M04 A3022 RMK AO2 SLP235 T00671044
Observed Flight Rules
Oct-22 @ 13:52 UTC
(52 minutes ago)
VFR
Wind Visibility
Variable at 5 knots 10 miles
Clouds
  • Clear skies
Temperature Dewpoint
7°C / 45°F -4°C / 25°F
Humidity Altimeter Pressure
46% 30.22" Hg 1023.5 hPa